createdAt,value
2019-01-11T00:01:44.136Z,13.30
2019-01-11T00:04:13.329Z,11.37
2019-01-11T00:06:42.437Z,11.00
2019-01-11T00:09:11.642Z,10.70
2019-01-11T00:11:40.749Z,10.80
2019-01-11T00:14:09.810Z,9.77
2019-01-11T00:16:38.907Z,11.00
2019-01-11T00:19:08.147Z,10.80
2019-01-11T00:21:37.385Z,11.27
2019-01-11T00:24:06.911Z,10.73
2019-01-11T00:26:36.046Z,10.70
2019-01-11T00:29:05.218Z,9.93
2019-01-11T00:31:34.396Z,10.40
2019-01-11T00:34:03.472Z,12.33
2019-01-11T00:36:32.569Z,11.60
2019-01-11T00:39:01.656Z,11.70
2019-01-11T00:41:30.740Z,10.90
2019-01-11T00:43:59.796Z,10.33
2019-01-11T00:46:28.850Z,9.47
2019-01-11T00:48:57.956Z,8.67
2019-01-11T00:51:27.118Z,9.70
2019-01-11T00:53:56.268Z,9.53
2019-01-11T00:56:25.323Z,9.60
2019-01-11T00:58:54.395Z,8.87
2019-01-11T01:01:23.538Z,9.70
2019-01-11T01:03:52.619Z,8.70
2019-01-11T01:06:21.738Z,9.40
2019-01-11T01:08:50.815Z,9.80
2019-01-11T01:11:19.966Z,9.73
2019-01-11T01:13:49.108Z,9.60
2019-01-11T01:16:18.173Z,10.50
2019-01-11T01:18:47.343Z,9.33
2019-01-11T01:21:16.487Z,10.37
2019-01-11T01:23:45.608Z,9.70
2019-01-11T01:26:14.654Z,9.07
2019-01-11T01:28:43.775Z,9.30
2019-01-11T01:31:15.686Z,9.97
2019-01-11T01:33:44.782Z,8.93
2019-01-11T01:36:13.832Z,9.27
2019-01-11T01:38:42.877Z,10.73
2019-01-11T01:41:11.920Z,11.13
2019-01-11T01:43:40.956Z,10.90
2019-01-11T01:46:09.952Z,11.43
2019-01-11T01:48:38.979Z,12.30
2019-01-11T01:51:08.020Z,12.13
2019-01-11T01:53:37.054Z,13.03
2019-01-11T01:56:06.059Z,13.47
2019-01-11T01:58:35.136Z,13.47
2019-01-11T02:01:04.153Z,13.03
2019-01-11T02:03:33.170Z,11.73
2019-01-11T02:06:02.179Z,11.23
2019-01-11T02:08:31.256Z,11.30
2019-01-11T02:11:00.276Z,11.00
2019-01-11T02:13:29.332Z,11.73
2019-01-11T02:15:58.364Z,11.07
2019-01-11T02:18:27.416Z,12.00
2019-01-11T02:20:56.529Z,12.77
2019-01-11T02:23:25.576Z,12.53
2019-01-11T02:25:54.608Z,13.30
2019-01-11T02:28:23.593Z,14.90
2019-01-11T02:30:52.961Z,13.10
2019-01-11T02:33:25.014Z,14.33
2019-01-11T02:35:52.778Z,14.10
2019-01-11T02:38:21.773Z,13.10
2019-01-11T02:40:50.786Z,13.20
2019-01-11T02:43:19.746Z,12.40
2019-01-11T02:45:48.794Z,13.07
2019-01-11T02:48:17.808Z,12.00
2019-01-11T02:50:47.171Z,12.97
2019-01-11T02:53:16.302Z,11.17
2019-01-11T02:55:45.394Z,12.03
2019-01-11T02:58:14.455Z,10.40
2019-01-11T03:00:43.530Z,10.67
2019-01-11T03:03:12.556Z,10.77
2019-01-11T03:05:41.649Z,11.70
2019-01-11T03:08:10.636Z,9.77
2019-01-11T03:10:39.719Z,9.97
2019-01-11T03:13:08.828Z,9.67
2019-01-11T03:15:37.904Z,10.23
2019-01-11T03:18:06.888Z,10.50
2019-01-11T03:20:35.923Z,10.33
2019-01-11T03:23:04.991Z,10.83
2019-01-11T03:25:34.114Z,11.43
2019-01-11T03:28:03.041Z,10.33
2019-01-11T03:30:32.139Z,9.77
2019-01-11T03:33:01.153Z,10.80
2019-01-11T03:35:30.210Z,10.90
2019-01-11T03:37:59.314Z,11.67
2019-01-11T03:40:28.366Z,10.63
2019-01-11T03:42:57.423Z,9.80
2019-01-11T03:45:26.489Z,10.73
2019-01-11T03:47:55.567Z,9.77
2019-01-11T03:50:24.834Z,10.27
2019-01-11T03:52:53.775Z,11.23
2019-01-11T03:55:22.803Z,10.23
2019-01-11T03:57:51.930Z,10.30
2019-01-11T04:00:22.799Z,10.27
2019-01-11T04:02:51.859Z,10.13
2019-01-11T04:05:23.667Z,10.23
2019-01-11T04:07:52.657Z,9.47
2019-01-11T04:10:23.255Z,10.33
2019-01-11T04:12:52.251Z,10.27
2019-01-11T04:15:22.067Z,10.03
2019-01-11T04:18:09.103Z,11.13
2019-01-11T04:20:38.276Z,9.77
2019-01-11T04:23:07.271Z,10.10
2019-01-11T04:25:41.861Z,10.07
2019-01-11T04:28:10.966Z,10.13
2019-01-11T04:30:40.077Z,10.03
2019-01-11T04:33:09.182Z,10.13
2019-01-11T04:35:38.230Z,10.23
2019-01-11T04:38:07.331Z,10.10
2019-01-11T04:40:36.327Z,10.70
2019-01-11T04:43:05.467Z,10.17
2019-01-11T04:45:34.527Z,9.30
2019-01-11T04:48:03.656Z,9.90
2019-01-11T04:50:32.719Z,9.93
2019-01-11T04:53:01.871Z,9.67
2019-01-11T04:55:30.975Z,9.30
2019-01-11T04:58:00.084Z,9.83
2019-01-11T05:00:29.232Z,10.30
2019-01-11T05:02:58.383Z,9.13
2019-01-11T05:05:27.474Z,9.03
2019-01-11T05:07:56.598Z,9.50
2019-01-11T05:10:25.677Z,9.20
2019-01-11T05:12:54.872Z,9.57
2019-01-11T05:15:23.949Z,8.83
2019-01-11T05:17:53.048Z,8.97
2019-01-11T05:20:22.154Z,8.73
2019-01-11T05:22:51.336Z,7.97
2019-01-11T05:25:20.411Z,8.20
2019-01-11T05:27:49.803Z,8.60
2019-01-11T05:30:19.662Z,7.87
2019-01-11T05:32:48.735Z,8.43
2019-01-11T05:35:17.779Z,8.33
2019-01-11T05:37:46.905Z,8.43
2019-01-11T05:40:19.694Z,8.37
2019-01-11T05:42:48.807Z,7.50
2019-01-11T05:45:18.157Z,8.00
2019-01-11T05:47:47.408Z,8.00
2019-01-11T05:50:23.946Z,7.10
2019-01-11T05:52:48.968Z,8.03
2019-01-11T05:55:31.846Z,7.80
2019-01-11T05:58:19.896Z,8.23
2019-01-11T06:00:48.981Z,9.23
2019-01-11T06:03:18.118Z,8.53
2019-01-11T06:05:47.248Z,9.30
2019-01-11T06:08:17.217Z,8.53
2019-01-11T06:10:46.286Z,8.17
2019-01-11T06:13:15.412Z,9.47
2019-01-11T06:15:44.624Z,8.73
2019-01-11T06:18:14.058Z,9.47
2019-01-11T06:20:43.104Z,9.87
2019-01-11T06:23:12.200Z,9.90
2019-01-11T06:25:41.318Z,9.33
2019-01-11T06:28:10.406Z,10.07
2019-01-11T06:30:39.489Z,9.53
2019-01-11T06:33:08.628Z,9.13
2019-01-11T06:35:37.706Z,9.67
2019-01-11T06:38:06.755Z,9.67
2019-01-11T06:40:35.827Z,10.63
2019-01-11T06:43:04.959Z,9.83
2019-01-11T06:45:34.007Z,9.03
2019-01-11T06:48:03.106Z,10.10
2019-01-11T06:50:36.467Z,10.97
2019-01-11T06:53:03.164Z,10.90
2019-01-11T06:55:32.213Z,10.40
2019-01-11T06:58:01.251Z,10.00
2019-01-11T07:00:30.432Z,10.40
2019-01-11T07:02:59.505Z,10.80
2019-01-11T07:05:28.763Z,9.77
2019-01-11T07:07:57.927Z,11.53
2019-01-11T07:10:27.034Z,11.23
2019-01-11T07:12:56.146Z,9.93
2019-01-11T07:15:26.881Z,13.53
2019-01-11T07:17:56.324Z,12.30
2019-01-11T07:20:26.795Z,11.07
2019-01-11T07:22:55.875Z,11.20
2019-01-11T07:25:25.019Z,10.67
2019-01-11T07:27:57.336Z,10.27
2019-01-11T07:30:33.338Z,10.37
2019-01-11T07:33:03.944Z,10.13
2019-01-11T07:35:47.581Z,11.23
2019-01-11T07:38:34.273Z,10.97
2019-01-11T07:41:03.779Z,9.97
2019-01-11T07:43:34.227Z,10.37
2019-01-11T07:46:03.722Z,10.17
2019-01-11T07:48:33.181Z,10.23
2019-01-11T07:51:02.415Z,11.00
2019-01-11T07:53:33.162Z,9.90
2019-01-11T07:56:02.339Z,10.43
2019-01-11T07:58:31.501Z,9.77
2019-01-11T08:01:00.600Z,10.40
2019-01-11T08:03:33.177Z,10.53
2019-01-11T08:06:02.346Z,10.83
2019-01-11T08:08:34.769Z,10.37
2019-01-11T08:11:03.897Z,10.17
2019-01-11T08:13:32.981Z,9.67
2019-01-11T08:16:08.533Z,9.07
2019-01-11T08:18:48.693Z,10.80
2019-01-11T08:21:18.392Z,8.70
2019-01-11T08:23:48.613Z,9.63
2019-01-11T08:26:18.397Z,8.40
2019-01-11T08:28:47.781Z,8.67
2019-01-11T08:31:17.840Z,8.37
2019-01-11T08:33:47.984Z,8.43
2019-01-11T08:36:18.237Z,8.93
2019-01-11T08:38:47.745Z,8.93
2019-01-11T08:41:17.183Z,9.30
2019-01-11T08:43:46.572Z,8.80
2019-01-11T08:46:16.834Z,9.40
2019-01-11T08:49:04.542Z,8.63
2019-01-11T08:51:37.813Z,9.47
2019-01-11T08:54:06.528Z,9.63
2019-01-11T08:56:35.697Z,10.53
2019-01-11T08:59:05.426Z,10.80
2019-01-11T09:01:38.589Z,10.70
2019-01-11T09:04:08.003Z,10.23
2019-01-11T09:06:37.193Z,11.00
2019-01-11T09:09:08.776Z,11.63
2019-01-11T09:11:38.541Z,11.67
2019-01-11T09:14:10.660Z,10.87
2019-01-11T09:16:39.755Z,10.70
2019-01-11T09:19:09.965Z,10.53
2019-01-11T09:21:41.709Z,10.43
2019-01-11T09:24:09.814Z,11.17
2019-01-11T09:26:38.999Z,11.30
2019-01-11T09:29:09.197Z,12.60
2019-01-11T09:31:40.649Z,12.53
2019-01-11T09:34:09.912Z,13.07
2019-01-11T09:36:39.100Z,12.73
2019-01-11T09:39:09.597Z,12.37
2019-01-11T09:41:38.649Z,14.07
2019-01-11T09:44:07.799Z,13.30
2019-01-11T09:46:36.968Z,13.80
2019-01-11T09:49:06.355Z,16.17
2019-01-11T09:51:35.539Z,15.70
2019-01-11T09:54:04.754Z,15.67
2019-01-11T09:56:33.861Z,16.17
2019-01-11T09:59:02.975Z,16.73
2019-01-11T10:01:32.020Z,16.30
2019-01-11T10:04:01.182Z,18.20
2019-01-11T10:06:31.959Z,18.00
2019-01-11T10:09:01.126Z,17.37
2019-01-11T10:11:30.369Z,18.33
2019-01-11T10:13:59.467Z,18.07
2019-01-11T10:16:28.558Z,18.80
2019-01-11T10:18:57.710Z,18.43
2019-01-11T10:21:26.845Z,18.57
2019-01-11T10:23:55.998Z,17.27
2019-01-11T10:26:25.256Z,19.13
2019-01-11T10:28:54.454Z,18.77
2019-01-11T10:31:23.802Z,18.50
2019-01-11T10:33:53.099Z,19.70
2019-01-11T10:36:22.192Z,17.73
2019-01-11T10:38:51.516Z,18.20
2019-01-11T10:41:20.614Z,19.20
2019-01-11T10:43:51.017Z,17.90
2019-01-11T10:46:49.598Z,18.13
2019-01-11T10:49:20.069Z,18.13
2019-01-11T13:38:55.494Z,9.77
2019-01-11T13:41:25.612Z,9.67
2019-01-11T13:43:55.244Z,10.00
2019-01-11T13:46:25.204Z,10.63
2019-01-11T13:48:54.423Z,9.37
2019-01-11T13:51:25.005Z,10.30
2019-01-11T13:53:55.671Z,10.80
2019-01-11T13:56:24.965Z,10.37
2019-01-11T13:58:54.356Z,9.57
2019-01-11T14:01:23.740Z,8.90
2019-01-11T14:03:54.139Z,9.17
2019-01-11T14:06:23.369Z,9.00
2019-01-11T14:08:52.604Z,8.73
2019-01-11T14:11:21.733Z,9.33
2019-01-11T14:13:51.673Z,8.40
2019-01-11T14:16:20.950Z,9.53
2019-01-11T14:18:50.316Z,9.70
2019-01-11T14:21:20.781Z,10.80
2019-01-11T14:23:50.296Z,12.00
2019-01-11T14:26:21.908Z,12.30
2019-01-11T14:28:51.140Z,13.90
2019-01-11T14:31:20.239Z,14.97
2019-01-11T14:33:49.352Z,15.47
2019-01-11T14:36:18.543Z,16.27
2019-01-11T14:38:47.634Z,16.77
2019-01-11T14:41:17.342Z,17.57
2019-01-11T14:43:46.768Z,18.37
2019-01-11T14:46:15.902Z,16.97
2019-01-11T14:48:44.945Z,17.23
2019-01-11T14:51:14.142Z,16.43
2019-01-11T14:53:43.171Z,16.63
2019-01-11T14:56:12.216Z,18.47
2019-01-11T14:58:41.256Z,14.73
2019-01-11T15:01:10.431Z,14.27
2019-01-11T15:03:39.465Z,12.97
2019-01-11T15:06:08.642Z,12.90
2019-01-11T15:08:37.717Z,12.90
2019-01-11T15:11:06.721Z,14.00
2019-01-11T15:13:35.971Z,12.23
2019-01-11T15:16:05.019Z,12.57
2019-01-11T15:18:34.415Z,12.73
2019-01-11T15:21:03.524Z,12.00
2019-01-11T15:23:32.579Z,10.83
2019-01-11T15:26:01.664Z,10.90
2019-01-11T15:28:30.806Z,9.00
2019-01-11T15:30:59.798Z,8.83
2019-01-11T15:33:28.769Z,9.70
2019-01-11T15:35:57.776Z,9.70
2019-01-11T15:38:27.188Z,10.23
2019-01-11T15:40:56.311Z,10.10
2019-01-11T15:43:26.212Z,10.10
2019-01-11T15:46:02.746Z,9.43
2019-01-11T15:48:46.336Z,9.83
2019-01-11T15:51:17.219Z,9.70
2019-01-11T15:53:47.163Z,10.60
2019-01-11T15:56:26.587Z,9.33
2019-01-11T15:58:55.617Z,9.90
2019-01-11T16:01:24.916Z,9.57
2019-01-11T16:03:53.954Z,10.07
2019-01-11T16:06:33.474Z,10.33
2019-01-11T16:10:16.192Z,10.80
2019-01-11T16:13:32.356Z,11.83
2019-01-11T16:16:24.043Z,13.73
2019-01-11T16:18:54.532Z,14.33
2019-01-11T16:21:23.708Z,15.00
2019-01-11T16:23:52.779Z,14.93
2019-01-11T16:26:21.801Z,15.10
2019-01-11T16:28:50.895Z,14.87
2019-01-11T16:31:20.011Z,14.83
2019-01-11T16:33:49.055Z,14.90
2019-01-11T16:36:18.703Z,14.93
2019-01-11T16:38:47.770Z,14.20
2019-01-11T16:41:16.845Z,12.73
2019-01-11T16:43:45.946Z,10.47
2019-01-11T16:46:15.782Z,10.13
2019-01-11T16:48:44.798Z,9.97
2019-01-11T16:51:13.867Z,9.50
2019-01-11T16:53:42.963Z,8.97
2019-01-11T16:56:12.120Z,9.20
2019-01-11T16:58:41.634Z,8.40
2019-01-11T17:01:10.828Z,8.67
2019-01-11T17:03:40.030Z,8.60
2019-01-11T17:06:09.175Z,8.80
2019-01-11T17:08:39.053Z,8.20
2019-01-11T17:11:08.111Z,7.17
2019-01-11T17:13:40.575Z,8.10
2019-01-11T17:16:07.908Z,7.17
2019-01-11T17:18:36.958Z,6.90
2019-01-11T17:21:05.944Z,6.40
2019-01-11T17:23:34.987Z,6.03
2019-01-11T17:26:07.469Z,6.73
2019-01-11T17:28:36.610Z,6.13
2019-01-11T17:31:05.835Z,6.30
2019-01-11T17:33:34.919Z,5.07
2019-01-11T17:36:04.117Z,5.67
2019-01-11T17:38:33.238Z,6.50
2019-01-11T17:41:02.696Z,6.33
2019-01-11T17:43:31.736Z,6.00
2019-01-11T17:46:00.759Z,5.67
2019-01-11T17:48:29.779Z,6.50
2019-01-11T17:50:58.785Z,6.50
2019-01-11T17:53:27.899Z,6.17
2019-01-11T17:55:57.044Z,6.67
2019-01-11T17:58:26.274Z,6.27
2019-01-11T18:00:55.356Z,7.03
2019-01-11T18:03:25.326Z,6.73
2019-01-11T18:05:54.535Z,6.70
2019-01-11T18:08:25.251Z,6.57
2019-01-11T18:10:54.340Z,6.80
2019-01-11T18:13:24.300Z,6.97
2019-01-11T18:15:53.446Z,6.83
2019-01-11T18:18:22.853Z,7.37
2019-01-11T18:20:52.243Z,6.90
2019-01-11T18:23:21.404Z,7.20
2019-01-11T18:25:50.654Z,7.63
2019-01-11T18:28:19.712Z,7.07
2019-01-11T18:30:48.790Z,7.13
2019-01-11T18:33:17.903Z,7.20
2019-01-11T18:35:46.961Z,6.67
2019-01-11T18:38:16.127Z,6.80
2019-01-11T18:40:45.295Z,6.20
2019-01-11T18:43:14.370Z,6.23
2019-01-11T18:45:44.394Z,7.03
2019-01-11T18:48:13.536Z,7.17
2019-01-11T18:50:42.667Z,7.57
2019-01-11T18:53:13.979Z,7.10
2019-01-11T18:55:42.794Z,6.83
2019-01-11T18:58:11.924Z,6.17
2019-01-11T19:00:41.025Z,6.87
2019-01-11T19:03:10.135Z,17.30
2019-01-11T19:05:39.323Z,12.13
2019-01-11T19:08:08.572Z,8.73
2019-01-11T19:10:38.805Z,11.43
2019-01-11T19:13:07.918Z,8.93
2019-01-11T19:15:37.115Z,8.27
2019-01-11T19:18:06.322Z,7.40
2019-01-11T19:20:37.105Z,6.90
2019-01-11T19:23:06.609Z,7.87
2019-01-11T19:25:35.729Z,7.63
2019-01-11T19:28:04.796Z,7.90
2019-01-11T19:30:33.885Z,9.40
2019-01-11T19:33:02.950Z,6.97
2019-01-11T19:35:32.343Z,7.13
2019-01-11T19:38:03.111Z,6.80
2019-01-11T19:40:32.177Z,7.57
2019-01-11T20:15:28.911Z,9.40
2019-01-11T20:17:59.278Z,11.17
2019-01-11T20:20:29.011Z,10.77
2019-01-11T20:23:02.338Z,11.20
2019-01-11T20:25:30.122Z,10.53
2019-01-11T20:28:01.324Z,9.47
2019-01-11T20:34:13.153Z,8.00
2019-01-11T20:36:49.377Z,9.53
2019-01-11T20:39:19.916Z,7.83
2019-01-11T20:41:53.609Z,6.70
2019-01-11T20:44:25.660Z,5.70
2019-01-11T20:46:55.767Z,6.20
2019-01-11T20:49:25.299Z,6.30
2019-01-11T20:51:54.782Z,4.87
2019-01-11T20:54:24.454Z,4.80
2019-01-11T20:56:53.865Z,5.50
2019-01-11T20:59:23.099Z,5.27
2019-01-11T21:01:55.432Z,5.57
2019-01-11T21:04:25.054Z,5.03
2019-01-11T21:06:54.544Z,4.67
2019-01-11T21:09:24.105Z,4.60
2019-01-11T21:11:53.927Z,4.77
2019-01-11T21:14:23.615Z,4.23
2019-01-11T21:16:53.092Z,4.43
2019-01-11T21:19:22.835Z,4.40
2019-01-11T21:21:52.436Z,4.47
2019-01-11T21:24:25.142Z,4.00
2019-01-11T21:26:54.729Z,3.50
2019-01-11T21:29:24.416Z,3.83
2019-01-11T21:31:54.248Z,3.60
2019-01-11T21:34:23.984Z,3.30
2019-01-11T21:36:54.400Z,3.87
2019-01-11T21:39:24.091Z,3.87
2019-01-11T21:41:53.867Z,3.60
2019-01-11T21:44:23.524Z,3.73
2019-01-11T21:46:53.071Z,3.40
2019-01-11T21:49:22.657Z,3.87
2019-01-11T21:51:52.214Z,3.53
2019-01-11T21:54:22.007Z,3.93
2019-01-11T21:56:51.454Z,3.33
2019-01-11T21:59:21.238Z,3.23
2019-01-11T22:01:50.927Z,4.13
2019-01-11T22:04:21.466Z,4.20
2019-01-11T22:06:53.024Z,4.60
2019-01-11T22:09:22.455Z,5.07
2019-01-11T22:11:52.082Z,4.47
2019-01-11T22:14:21.544Z,4.37
2019-01-11T22:16:51.141Z,4.10
2019-01-11T22:19:20.758Z,3.77
2019-01-11T22:21:50.349Z,4.07
2019-01-11T22:24:19.789Z,4.00
2019-01-11T22:26:49.155Z,4.60
2019-01-11T22:29:18.561Z,4.37
2019-01-11T22:31:48.093Z,5.13
2019-01-11T22:34:17.629Z,4.80
2019-01-11T22:36:46.995Z,4.97
2019-01-11T22:39:17.457Z,5.40
2019-01-11T22:41:46.971Z,6.40
2019-01-11T22:44:16.577Z,5.40
2019-01-11T22:46:46.160Z,5.13
2019-01-11T22:49:15.567Z,5.07
2019-01-11T22:51:47.872Z,5.53
2019-01-11T22:54:21.876Z,5.17
2019-01-11T22:56:52.476Z,5.33
2019-01-11T22:59:23.389Z,5.40
2019-01-11T23:02:13.591Z,5.57
2019-01-11T23:04:46.970Z,6.77
2019-01-11T23:07:48.678Z,7.10
2019-01-11T23:10:45.946Z,7.97
2019-01-11T23:13:18.438Z,8.73
2019-01-11T23:15:52.266Z,8.53
2019-01-11T23:18:26.415Z,8.90
2019-01-11T23:21:08.933Z,9.33
2019-01-11T23:23:43.275Z,9.23
2019-01-11T23:26:13.810Z,9.90
2019-01-11T23:28:44.794Z,8.97
2019-01-11T23:31:16.101Z,8.73
2019-01-11T23:33:53.484Z,8.47
2019-01-11T23:36:27.281Z,8.33
